N1072Q -KPWM
Flight info
| Callsign | N1072Q |
|---|---|
| Flight time | N/A |
| Altitude | VFR/ |
| Route | |
| Aircraft | C172/L-VGD/C |
Departure
| Time | N/A |
|---|---|
| Airport | - |
Arrival
| Time | 2026-04-26 17:49 |
|---|---|
| Airport | Portland International Jetport (KPWM) |
| Time | Latitude | Longitude | Altitude | Speed | Heading |
|---|---|---|---|---|---|
| 2026-04-26 17:41 | 43.78219 | -70.16013 | 1758 ft | 134 kts | 246° |
| 2026-04-26 17:42 | 43.77850 | -70.17197 | 1741 ft | 135 kts | 249° |
| 2026-04-26 17:42 | 43.77540 | -70.18412 | 1819 ft | 129 kts | 252° |
| 2026-04-26 17:42 | 43.77284 | -70.19604 | 1780 ft | 133 kts | 256° |
| 2026-04-26 17:42 | 43.77058 | -70.20871 | 1783 ft | 133 kts | 257° |
| 2026-04-26 17:43 | 43.76856 | -70.22083 | 1795 ft | 133 kts | 257° |
| 2026-04-26 17:43 | 43.76641 | -70.23379 | 1626 ft | 139 kts | 258° |
| 2026-04-26 17:43 | 43.76421 | -70.24680 | 1550 ft | 138 kts | 256° |
| 2026-04-26 17:43 | 43.76158 | -70.25956 | 1621 ft | 134 kts | 256° |
| 2026-04-26 17:44 | 43.75932 | -70.27209 | 1537 ft | 136 kts | 257° |
| 2026-04-26 17:44 | 43.75673 | -70.28453 | 1546 ft | 133 kts | 256° |
| 2026-04-26 17:44 | 43.75479 | -70.29706 | 1629 ft | 131 kts | 261° |
| 2026-04-26 17:44 | 43.75330 | -70.30946 | 1663 ft | 131 kts | 261° |
| 2026-04-26 17:45 | 43.75065 | -70.32123 | 1751 ft | 125 kts | 232° |
| 2026-04-26 17:45 | 43.74335 | -70.32751 | 1791 ft | 125 kts | 194° |
| 2026-04-26 17:45 | 43.73476 | -70.32968 | 1773 ft | 131 kts | 189° |
| 2026-04-26 17:45 | 43.72563 | -70.33187 | 1655 ft | 137 kts | 188° |
| 2026-04-26 17:46 | 43.71661 | -70.33599 | 1562 ft | 136 kts | 213° |
| 2026-04-26 17:46 | 43.70940 | -70.34432 | 1480 ft | 139 kts | 220° |
| 2026-04-26 17:46 | 43.70145 | -70.35079 | 1528 ft | 129 kts | 200° |
| 2026-04-26 17:46 | 43.69263 | -70.35370 | 1468 ft | 131 kts | 186° |
| 2026-04-26 17:47 | 43.68376 | -70.35532 | 1505 ft | 130 kts | 187° |
| 2026-04-26 17:47 | 43.67791 | -70.35650 | 1516 ft | 130 kts | 187° |
| 2026-04-26 17:47 | 43.66545 | -70.35918 | 1313 ft | 132 kts | 188° |
| 2026-04-26 17:47 | 43.65724 | -70.36097 | 1145 ft | 118 kts | 188° |
| 2026-04-26 17:48 | 43.65102 | -70.35924 | 1017 ft | 82 kts | 130° |
| 2026-04-26 17:48 | 43.64866 | -70.35216 | 714 ft | 81 kts | 111° |
| 2026-04-26 17:48 | 43.64719 | -70.34469 | 461 ft | 76 kts | 100° |
| 2026-04-26 17:48 | 43.64671 | -70.33749 | 316 ft | 74 kts | 100° |
| 2026-04-26 17:49 | 43.64619 | -70.33054 | 170 ft | 69 kts | 97° |
| 2026-04-26 17:49 | 43.64580 | -70.32429 | 70 ft | 61 kts | 104° |
| 2026-04-26 17:49 | 43.64531 | -70.31934 | 66 ft | 46 kts | 89° |
| 2026-04-26 17:49 | 43.64511 | -70.31503 | 64 ft | 45 kts | 94° |
| 2026-04-26 17:50 | 43.64486 | -70.31099 | 56 ft | 39 kts | 97° |
| 2026-04-26 17:50 | 43.64458 | -70.30736 | 52 ft | 34 kts | 97° |
| 2026-04-26 17:50 | 43.64394 | -70.30686 | 52 ft | 16 kts | 187° |
| 2026-04-26 17:50 | 43.64253 | -70.30692 | 54 ft | 13 kts | 232° |
| 2026-04-26 17:51 | 43.64237 | -70.30776 | 55 ft | 7 kts | 9° |